sensor_id;sensor_type;location;lat;lon;timestamp;pressure;altitude;pressure_sealevel;temperature;humidity
3598;BME280;1813;52.016;8.714;2023-06-04T00:00:49;-16261.94;;;-139.71;48.93
3598;BME280;1813;52.016;8.714;2023-06-04T00:03:27;-16261.94;;;-139.71;49.94
3598;BME280;1813;52.016;8.714;2023-06-04T00:06:01;-16261.94;;;-139.71;50.69
3598;BME280;1813;52.016;8.714;2023-06-04T00:08:34;-16261.94;;;-139.71;50.00
3598;BME280;1813;52.016;8.714;2023-06-04T00:11:08;-16261.94;;;-139.71;49.23
3598;BME280;1813;52.016;8.714;2023-06-04T00:13:42;-16261.94;;;-139.71;48.78
3598;BME280;1813;52.016;8.714;2023-06-04T00:16:16;-16261.94;;;-139.71;48.68
3598;BME280;1813;52.016;8.714;2023-06-04T00:18:52;-16261.94;;;-139.71;48.67
3598;BME280;1813;52.016;8.714;2023-06-04T00:21:26;-16261.94;;;-139.71;48.98
3598;BME280;1813;52.016;8.714;2023-06-04T00:24:00;-16261.94;;;-139.71;49.17
3598;BME280;1813;52.016;8.714;2023-06-04T00:26:34;-16261.94;;;-139.71;49.00
3598;BME280;1813;52.016;8.714;2023-06-04T00:29:08;-16261.94;;;-139.71;48.65
3598;BME280;1813;52.016;8.714;2023-06-04T00:31:43;-16261.94;;;-139.71;48.90
3598;BME280;1813;52.016;8.714;2023-06-04T00:34:19;-16261.94;;;-139.71;49.45
3598;BME280;1813;52.016;8.714;2023-06-04T00:36:53;-16261.94;;;-139.71;49.74
3598;BME280;1813;52.016;8.714;2023-06-04T00:39:27;-16261.94;;;-139.71;49.75
3598;BME280;1813;52.016;8.714;2023-06-04T00:42:01;-16261.94;;;-139.71;49.96
3598;BME280;1813;52.016;8.714;2023-06-04T00:44:35;-16261.94;;;-139.71;50.82
3598;BME280;1813;52.016;8.714;2023-06-04T00:47:16;-16261.94;;;-139.71;51.26
3598;BME280;1813;52.016;8.714;2023-06-04T00:49:54;-16261.94;;;-139.71;51.68
3598;BME280;1813;52.016;8.714;2023-06-04T00:52:29;-16261.94;;;-139.71;51.57
3598;BME280;1813;52.016;8.714;2023-06-04T00:55:03;-16261.94;;;-139.71;52.01
3598;BME280;1813;52.016;8.714;2023-06-04T00:57:37;-16261.94;;;-139.71;51.81
3598;BME280;1813;52.016;8.714;2023-06-04T01:00:12;-16261.94;;;-139.71;52.18
3598;BME280;1813;52.016;8.714;2023-06-04T01:02:48;-16261.94;;;-139.71;52.06
3598;BME280;1813;52.016;8.714;2023-06-04T01:05:32;-16261.94;;;-139.71;52.21
3598;BME280;1813;52.016;8.714;2023-06-04T01:08:11;-16261.94;;;-139.71;52.22
3598;BME280;1813;52.016;8.714;2023-06-04T01:10:52;-16261.94;;;-139.71;52.26
3598;BME280;1813;52.016;8.714;2023-06-04T01:13:26;-16261.94;;;-139.71;52.22
3598;BME280;1813;52.016;8.714;2023-06-04T01:16:00;-16261.94;;;-139.71;52.10
3598;BME280;1813;52.016;8.714;2023-06-04T01:18:37;-16261.94;;;-139.71;52.13
3598;BME280;1813;52.016;8.714;2023-06-04T01:21:16;-16261.94;;;-139.71;52.20
3598;BME280;1813;52.016;8.714;2023-06-04T01:23:51;-16261.94;;;-139.71;52.12
3598;BME280;1813;52.016;8.714;2023-06-04T01:26:31;-16261.94;;;-139.71;51.93
3598;BME280;1813;52.016;8.714;2023-06-04T01:29:06;-16261.94;;;-139.71;52.14
3598;BME280;1813;52.016;8.714;2023-06-04T01:31:40;-16261.94;;;-139.71;51.89
3598;BME280;1813;52.016;8.714;2023-06-04T01:34:14;-16261.94;;;-139.71;51.57
3598;BME280;1813;52.016;8.714;2023-06-04T01:36:50;-16261.94;;;-139.71;51.98
3598;BME280;1813;52.016;8.714;2023-06-04T01:39:24;-16261.94;;;-139.71;51.92
3598;BME280;1813;52.016;8.714;2023-06-04T01:41:58;-16261.94;;;-139.71;51.86
3598;BME280;1813;52.016;8.714;2023-06-04T01:44:32;-16261.94;;;-139.71;51.48
3598;BME280;1813;52.016;8.714;2023-06-04T01:47:05;-16261.94;;;-139.71;51.59
3598;BME280;1813;52.016;8.714;2023-06-04T01:49:40;-16261.94;;;-139.71;51.45
3598;BME280;1813;52.016;8.714;2023-06-04T01:52:16;-16261.94;;;-139.71;51.54
3598;BME280;1813;52.016;8.714;2023-06-04T01:54:51;-16261.94;;;-139.71;51.77
3598;BME280;1813;52.016;8.714;2023-06-04T01:57:26;-16261.94;;;-139.71;52.01
3598;BME280;1813;52.016;8.714;2023-06-04T02:00:00;-16261.94;;;-139.71;52.34
3598;BME280;1813;52.016;8.714;2023-06-04T02:02:45;-16261.94;;;-139.71;52.90
3598;BME280;1813;52.016;8.714;2023-06-04T02:05:19;-16261.94;;;-139.71;53.13
3598;BME280;1813;52.016;8.714;2023-06-04T02:07:55;-16261.94;;;-139.71;52.93
3598;BME280;1813;52.016;8.714;2023-06-04T02:10:32;-16261.94;;;-139.71;53.06
3598;BME280;1813;52.016;8.714;2023-06-04T02:13:06;-16261.94;;;-139.71;52.75
3598;BME280;1813;52.016;8.714;2023-06-04T02:15:40;-16261.94;;;-139.71;53.13
3598;BME280;1813;52.016;8.714;2023-06-04T02:18:15;-16261.94;;;-139.71;53.25
3598;BME280;1813;52.016;8.714;2023-06-04T02:20:51;-16261.94;;;-139.71;53.58
3598;BME280;1813;52.016;8.714;2023-06-04T02:23:28;-16261.94;;;-139.71;53.19
3598;BME280;1813;52.016;8.714;2023-06-04T02:26:01;-16261.94;;;-139.71;53.48
3598;BME280;1813;52.016;8.714;2023-06-04T02:28:36;-16261.94;;;-139.71;54.18
3598;BME280;1813;52.016;8.714;2023-06-04T02:31:09;-16261.94;;;-139.71;54.04
3598;BME280;1813;52.016;8.714;2023-06-04T02:33:43;-16261.94;;;-139.71;54.41
3598;BME280;1813;52.016;8.714;2023-06-04T02:36:17;-16261.94;;;-139.71;54.76
3598;BME280;1813;52.016;8.714;2023-06-04T02:38:53;-16261.94;;;-139.71;55.12
3598;BME280;1813;52.016;8.714;2023-06-04T02:41:27;-16261.94;;;-139.71;54.65
3598;BME280;1813;52.016;8.714;2023-06-04T02:44:01;-16261.94;;;-139.71;54.15
3598;BME280;1813;52.016;8.714;2023-06-04T02:46:37;-16261.94;;;-139.71;54.13
3598;BME280;1813;52.016;8.714;2023-06-04T02:49:11;-16261.94;;;-139.71;53.23
3598;BME280;1813;52.016;8.714;2023-06-04T02:51:45;-16261.94;;;-139.71;53.37
3598;BME280;1813;52.016;8.714;2023-06-04T02:54:21;-16261.94;;;-139.71;53.82
3598;BME280;1813;52.016;8.714;2023-06-04T02:56:55;-16261.94;;;-139.71;54.00
3598;BME280;1813;52.016;8.714;2023-06-04T02:59:29;-16261.94;;;-139.71;54.64
3598;BME280;1813;52.016;8.714;2023-06-04T03:02:03;-16261.94;;;-139.71;54.62
3598;BME280;1813;52.016;8.714;2023-06-04T03:04:37;-16261.94;;;-139.71;54.37
3598;BME280;1813;52.016;8.714;2023-06-04T03:07:12;-16261.94;;;-139.71;54.71
3598;BME280;1813;52.016;8.714;2023-06-04T03:09:48;-16261.94;;;-139.71;54.98
3598;BME280;1813;52.016;8.714;2023-06-04T03:12:22;-16261.94;;;-139.71;55.27
3598;BME280;1813;52.016;8.714;2023-06-04T03:14:56;-16261.94;;;-139.71;55.29
3598;BME280;1813;52.016;8.714;2023-06-04T03:17:30;-16261.94;;;-139.71;55.60
3598;BME280;1813;52.016;8.714;2023-06-04T03:20:06;-16261.94;;;-139.71;55.67
3598;BME280;1813;52.016;8.714;2023-06-04T03:22:39;-16261.94;;;-139.71;55.67
3598;BME280;1813;52.016;8.714;2023-06-04T03:25:16;-16261.94;;;-139.71;55.99
3598;BME280;1813;52.016;8.714;2023-06-04T03:27:51;-16261.94;;;-139.71;56.50
3598;BME280;1813;52.016;8.714;2023-06-04T03:30:25;-16261.94;;;-139.71;56.61
3598;BME280;1813;52.016;8.714;2023-06-04T03:33:07;-16261.94;;;-139.71;55.49
3598;BME280;1813;52.016;8.714;2023-06-04T03:35:41;-16261.94;;;-139.71;56.01
3598;BME280;1813;52.016;8.714;2023-06-04T03:38:16;-16261.94;;;-139.71;56.55
3598;BME280;1813;52.016;8.714;2023-06-04T03:40:53;-16261.94;;;-139.71;56.87
3598;BME280;1813;52.016;8.714;2023-06-04T03:43:27;-16261.94;;;-139.71;57.17
3598;BME280;1813;52.016;8.714;2023-06-04T03:46:06;-16261.94;;;-139.71;57.24
3598;BME280;1813;52.016;8.714;2023-06-04T03:48:41;-16261.94;;;-139.71;57.42
3598;BME280;1813;52.016;8.714;2023-06-04T03:51:16;-16261.94;;;-139.71;57.69
3598;BME280;1813;52.016;8.714;2023-06-04T03:53:50;-16261.94;;;-139.71;57.66
3598;BME280;1813;52.016;8.714;2023-06-04T03:56:26;-16261.94;;;-139.71;57.99
3598;BME280;1813;52.016;8.714;2023-06-04T03:59:00;-16261.94;;;-139.71;58.45
3598;BME280;1813;52.016;8.714;2023-06-04T04:01:36;-16261.94;;;-139.71;59.03
3598;BME280;1813;52.016;8.714;2023-06-04T04:04:10;-16261.94;;;-139.71;59.38
3598;BME280;1813;52.016;8.714;2023-06-04T04:06:44;-16261.94;;;-139.71;58.70
3598;BME280;1813;52.016;8.714;2023-06-04T04:09:18;-16261.94;;;-139.71;58.50
3598;BME280;1813;52.016;8.714;2023-06-04T04:11:54;-16261.94;;;-139.71;59.50
3598;BME280;1813;52.016;8.714;2023-06-04T04:14:28;-16261.94;;;-139.71;59.47
3598;BME280;1813;52.016;8.714;2023-06-04T04:17:02;-16261.94;;;-139.71;59.77
3598;BME280;1813;52.016;8.714;2023-06-04T04:19:36;-16261.94;;;-139.71;59.94
3598;BME280;1813;52.016;8.714;2023-06-04T04:22:10;-16261.94;;;-139.71;59.90
3598;BME280;1813;52.016;8.714;2023-06-04T04:24:48;-16261.94;;;-139.71;59.48
3598;BME280;1813;52.016;8.714;2023-06-04T04:27:25;-16261.94;;;-139.71;59.31
3598;BME280;1813;52.016;8.714;2023-06-04T04:30:01;-16261.94;;;-139.71;60.07
3598;BME280;1813;52.016;8.714;2023-06-04T04:32:35;-16261.94;;;-139.71;61.16
3598;BME280;1813;52.016;8.714;2023-06-04T04:35:13;-16261.94;;;-139.71;62.13
3598;BME280;1813;52.016;8.714;2023-06-04T04:37:49;-16261.94;;;-139.71;62.57
3598;BME280;1813;52.016;8.714;2023-06-04T04:40:24;-16261.94;;;-139.71;63.03
3598;BME280;1813;52.016;8.714;2023-06-04T04:43:03;-16261.94;;;-139.71;63.55
3598;BME280;1813;52.016;8.714;2023-06-04T04:45:37;-16261.94;;;-139.71;64.08
3598;BME280;1813;52.016;8.714;2023-06-04T04:48:13;-16261.94;;;-139.71;64.80
3598;BME280;1813;52.016;8.714;2023-06-04T04:50:48;-16261.94;;;-139.71;65.07
3598;BME280;1813;52.016;8.714;2023-06-04T04:53:22;-16261.94;;;-139.71;65.24
3598;BME280;1813;52.016;8.714;2023-06-04T04:55:56;-16261.94;;;-139.71;64.94
3598;BME280;1813;52.016;8.714;2023-06-04T04:58:33;-16261.94;;;-139.71;64.99
3598;BME280;1813;52.016;8.714;2023-06-04T05:01:07;-16261.94;;;-139.71;64.74
3598;BME280;1813;52.016;8.714;2023-06-04T05:03:41;-16261.94;;;-139.71;63.74
3598;BME280;1813;52.016;8.714;2023-06-04T05:06:18;-16261.94;;;-139.71;61.87
3598;BME280;1813;52.016;8.714;2023-06-04T05:08:52;-16261.94;;;-139.71;59.20
3598;BME280;1813;52.016;8.714;2023-06-04T05:11:26;-16261.94;;;-139.71;57.89
3598;BME280;1813;52.016;8.714;2023-06-04T05:14:02;-16261.94;;;-139.71;56.80
3598;BME280;1813;52.016;8.714;2023-06-04T05:16:36;-16261.94;;;-139.71;54.73
3598;BME280;1813;52.016;8.714;2023-06-04T05:19:12;-16261.94;;;-139.71;53.67
3598;BME280;1813;52.016;8.714;2023-06-04T05:21:47;-16261.94;;;-139.71;53.48
3598;BME280;1813;52.016;8.714;2023-06-04T05:24:21;-16261.94;;;-139.71;53.53
3598;BME280;1813;52.016;8.714;2023-06-04T05:26:56;-16261.94;;;-139.71;52.46
3598;BME280;1813;52.016;8.714;2023-06-04T05:29:33;-16261.94;;;-139.71;51.56
3598;BME280;1813;52.016;8.714;2023-06-04T05:32:07;-16261.94;;;-139.71;50.86
3598;BME280;1813;52.016;8.714;2023-06-04T05:34:41;-16261.94;;;-139.71;50.36
3598;BME280;1813;52.016;8.714;2023-06-04T05:37:18;-16261.94;;;-139.71;50.35
3598;BME280;1813;52.016;8.714;2023-06-04T05:39:55;-16261.94;;;-139.71;52.15
3598;BME280;1813;52.016;8.714;2023-06-04T05:42:29;-16261.94;;;-139.71;51.49
3598;BME280;1813;52.016;8.714;2023-06-04T05:45:07;-16261.94;;;-139.71;50.91
3598;BME280;1813;52.016;8.714;2023-06-04T05:47:43;-16261.94;;;-139.71;50.95
3598;BME280;1813;52.016;8.714;2023-06-04T05:50:16;-16261.94;;;-139.71;50.88
3598;BME280;1813;52.016;8.714;2023-06-04T05:52:50;-16261.94;;;-139.71;50.74
3598;BME280;1813;52.016;8.714;2023-06-04T05:55:24;-16261.94;;;-139.71;51.36
3598;BME280;1813;52.016;8.714;2023-06-04T05:57:59;-16261.94;;;-139.71;51.14
3598;BME280;1813;52.016;8.714;2023-06-04T06:00:36;-16261.94;;;-139.71;51.28
3598;BME280;1813;52.016;8.714;2023-06-04T06:03:12;-16261.94;;;-139.71;51.19
3598;BME280;1813;52.016;8.714;2023-06-04T06:05:50;-16261.94;;;-139.71;51.86
3598;BME280;1813;52.016;8.714;2023-06-04T06:08:25;-16261.94;;;-139.71;52.02
3598;BME280;1813;52.016;8.714;2023-06-04T06:10:59;-16261.94;;;-139.71;52.66
3598;BME280;1813;52.016;8.714;2023-06-04T06:13:35;-16261.94;;;-139.71;52.02
3598;BME280;1813;52.016;8.714;2023-06-04T06:16:12;-16261.94;;;-139.71;51.17
3598;BME280;1813;52.016;8.714;2023-06-04T06:18:48;-16261.94;;;-139.71;51.11
3598;BME280;1813;52.016;8.714;2023-06-04T06:21:22;-16261.94;;;-139.71;51.62
3598;BME280;1813;52.016;8.714;2023-06-04T06:23:56;-16261.94;;;-139.71;51.69
3598;BME280;1813;52.016;8.714;2023-06-04T06:26:29;-16261.94;;;-139.71;51.89
3598;BME280;1813;52.016;8.714;2023-06-04T06:29:05;-16261.94;;;-139.71;51.50
3598;BME280;1813;52.016;8.714;2023-06-04T06:31:41;-16261.94;;;-139.71;50.91
3598;BME280;1813;52.016;8.714;2023-06-04T06:34:15;-16261.94;;;-139.71;50.75
3598;BME280;1813;52.016;8.714;2023-06-04T06:36:49;-16261.94;;;-139.71;51.29
3598;BME280;1813;52.016;8.714;2023-06-04T06:39:23;-16261.94;;;-139.71;50.83
3598;BME280;1813;52.016;8.714;2023-06-04T06:41:57;-16261.94;;;-139.71;50.32
3598;BME280;1813;52.016;8.714;2023-06-04T06:44:37;-16261.94;;;-139.71;50.35
3598;BME280;1813;52.016;8.714;2023-06-04T06:47:13;-16261.94;;;-139.71;48.37
3598;BME280;1813;52.016;8.714;2023-06-04T06:49:47;-16261.94;;;-139.71;48.48
3598;BME280;1813;52.016;8.714;2023-06-04T06:52:21;-16261.94;;;-139.71;48.21
3598;BME280;1813;52.016;8.714;2023-06-04T06:54:55;-16261.94;;;-139.71;45.32
3598;BME280;1813;52.016;8.714;2023-06-04T06:57:28;-16261.94;;;-139.71;44.28
3598;BME280;1813;52.016;8.714;2023-06-04T07:00:05;-16261.94;;;-139.71;42.18
3598;BME280;1813;52.016;8.714;2023-06-04T07:02:42;-16261.94;;;-139.71;43.09
3598;BME280;1813;52.016;8.714;2023-06-04T07:05:16;-16261.94;;;-139.71;42.83
3598;BME280;1813;52.016;8.714;2023-06-04T07:07:50;-16261.94;;;-139.71;41.43
3598;BME280;1813;52.016;8.714;2023-06-04T07:10:25;-16261.94;;;-139.71;40.93
3598;BME280;1813;52.016;8.714;2023-06-04T07:12:59;-16261.94;;;-139.71;40.50
3598;BME280;1813;52.016;8.714;2023-06-04T07:15:32;-16261.94;;;-139.71;39.41
3598;BME280;1813;52.016;8.714;2023-06-04T07:18:09;-16261.94;;;-139.71;38.84
3598;BME280;1813;52.016;8.714;2023-06-04T07:20:43;-16261.94;;;-139.71;38.55
3598;BME280;1813;52.016;8.714;2023-06-04T07:23:16;-16261.94;;;-139.71;38.77
3598;BME280;1813;52.016;8.714;2023-06-04T07:25:50;-16261.94;;;-139.71;37.26
3598;BME280;1813;52.016;8.714;2023-06-04T07:28:25;-16261.94;;;-139.71;38.02
3598;BME280;1813;52.016;8.714;2023-06-04T07:30:59;-16261.94;;;-139.71;38.17
3598;BME280;1813;52.016;8.714;2023-06-04T07:33:35;-16261.94;;;-139.71;38.03
3598;BME280;1813;52.016;8.714;2023-06-04T07:36:13;-16261.94;;;-139.71;37.60
3598;BME280;1813;52.016;8.714;2023-06-04T07:38:47;-16261.94;;;-139.71;37.46
3598;BME280;1813;52.016;8.714;2023-06-04T07:41:21;-16261.94;;;-139.71;37.46
3598;BME280;1813;52.016;8.714;2023-06-04T07:43:56;-16261.94;;;-139.71;37.88
3598;BME280;1813;52.016;8.714;2023-06-04T07:46:30;-16261.94;;;-139.71;35.71
3598;BME280;1813;52.016;8.714;2023-06-04T07:49:06;-16261.94;;;-139.71;35.53
3598;BME280;1813;52.016;8.714;2023-06-04T07:51:40;-16261.94;;;-139.71;36.25
3598;BME280;1813;52.016;8.714;2023-06-04T07:54:14;-16261.94;;;-139.71;35.88
3598;BME280;1813;52.016;8.714;2023-06-04T07:56:48;-16261.94;;;-139.71;37.52
3598;BME280;1813;52.016;8.714;2023-06-04T07:59:26;-16261.94;;;-139.71;35.47
3598;BME280;1813;52.016;8.714;2023-06-04T08:02:00;-16261.94;;;-139.71;36.87
3598;BME280;1813;52.016;8.714;2023-06-04T08:04:36;-16261.94;;;-139.71;37.17
3598;BME280;1813;52.016;8.714;2023-06-04T08:07:10;-16261.94;;;-139.71;35.99
3598;BME280;1813;52.016;8.714;2023-06-04T08:09:44;-16261.94;;;-139.71;36.42
3598;BME280;1813;52.016;8.714;2023-06-04T08:12:18;-16261.94;;;-139.71;35.78
3598;BME280;1813;52.016;8.714;2023-06-04T08:14:51;-16261.94;;;-139.71;35.71
3598;BME280;1813;52.016;8.714;2023-06-04T08:17:27;-16261.94;;;-139.71;36.30
3598;BME280;1813;52.016;8.714;2023-06-04T08:20:05;-16261.94;;;-139.71;35.06
3598;BME280;1813;52.016;8.714;2023-06-04T08:22:40;-16261.94;;;-139.71;35.99
3598;BME280;1813;52.016;8.714;2023-06-04T08:25:14;-16261.94;;;-139.71;35.64
3598;BME280;1813;52.016;8.714;2023-06-04T08:27:47;-16261.94;;;-139.71;35.00
3598;BME280;1813;52.016;8.714;2023-06-04T08:30:21;-16261.94;;;-139.71;34.38
3598;BME280;1813;52.016;8.714;2023-06-04T08:32:56;-16261.94;;;-139.71;35.18
3598;BME280;1813;52.016;8.714;2023-06-04T08:35:32;-16261.94;;;-139.71;34.83
3598;BME280;1813;52.016;8.714;2023-06-04T08:38:06;-16261.94;;;-139.71;33.08
3598;BME280;1813;52.016;8.714;2023-06-04T08:40:40;-16261.94;;;-139.71;33.03
3598;BME280;1813;52.016;8.714;2023-06-04T08:43:14;-16261.94;;;-139.71;32.64
3598;BME280;1813;52.016;8.714;2023-06-04T08:45:49;-16261.94;;;-139.71;33.81
3598;BME280;1813;52.016;8.714;2023-06-04T08:48:24;-16261.94;;;-139.71;33.07
3598;BME280;1813;52.016;8.714;2023-06-04T08:51:02;-16261.94;;;-139.71;32.70
3598;BME280;1813;52.016;8.714;2023-06-04T08:53:39;-16261.94;;;-139.71;31.55
3598;BME280;1813;52.016;8.714;2023-06-04T08:56:19;-16261.94;;;-139.71;32.13
3598;BME280;1813;52.016;8.714;2023-06-04T08:58:55;-16261.94;;;-139.71;33.10
3598;BME280;1813;52.016;8.714;2023-06-04T09:01:30;-16261.94;;;-139.71;31.94
3598;BME280;1813;52.016;8.714;2023-06-04T09:04:05;-16261.94;;;-139.71;31.61
3598;BME280;1813;52.016;8.714;2023-06-04T09:06:42;-16261.94;;;-139.71;30.56
3598;BME280;1813;52.016;8.714;2023-06-04T09:09:17;-16261.94;;;-139.71;29.98
3598;BME280;1813;52.016;8.714;2023-06-04T09:11:54;-16261.94;;;-139.71;30.35
3598;BME280;1813;52.016;8.714;2023-06-04T09:14:28;-16261.94;;;-139.71;30.40
3598;BME280;1813;52.016;8.714;2023-06-04T09:17:01;-16261.94;;;-139.71;31.48
3598;BME280;1813;52.016;8.714;2023-06-04T09:19:36;-16261.94;;;-139.71;30.49
3598;BME280;1813;52.016;8.714;2023-06-04T09:22:12;-16261.94;;;-139.71;29.91
3598;BME280;1813;52.016;8.714;2023-06-04T09:24:47;-16261.94;;;-139.71;29.27
3598;BME280;1813;52.016;8.714;2023-06-04T09:27:23;-16261.94;;;-139.71;29.51
3598;BME280;1813;52.016;8.714;2023-06-04T09:29:58;-16261.94;;;-139.71;28.93
3598;BME280;1813;52.016;8.714;2023-06-04T09:32:32;-16261.94;;;-139.71;29.44
3598;BME280;1813;52.016;8.714;2023-06-04T09:35:10;-16261.94;;;-139.71;29.08
3598;BME280;1813;52.016;8.714;2023-06-04T09:37:55;-16261.94;;;-139.71;27.67
3598;BME280;1813;52.016;8.714;2023-06-04T09:40:35;-16261.94;;;-139.71;27.25
3598;BME280;1813;52.016;8.714;2023-06-04T09:43:10;-16261.94;;;-139.71;29.25
3598;BME280;1813;52.016;8.714;2023-06-04T09:45:44;-16261.94;;;-139.71;30.28
3598;BME280;1813;52.016;8.714;2023-06-04T09:48:20;-16261.94;;;-139.71;28.08
3598;BME280;1813;52.016;8.714;2023-06-04T09:50:54;-16261.94;;;-139.71;28.88
3598;BME280;1813;52.016;8.714;2023-06-04T09:53:30;-16261.94;;;-139.71;29.85
3598;BME280;1813;52.016;8.714;2023-06-04T09:56:05;-16261.94;;;-139.71;27.17
3598;BME280;1813;52.016;8.714;2023-06-04T09:58:42;-16261.94;;;-139.71;27.12
3598;BME280;1813;52.016;8.714;2023-06-04T10:01:18;-16261.94;;;-139.71;28.07
3598;BME280;1813;52.016;8.714;2023-06-04T10:03:53;-16261.94;;;-139.71;27.23
3598;BME280;1813;52.016;8.714;2023-06-04T10:06:28;-16261.94;;;-139.71;28.51
3598;BME280;1813;52.016;8.714;2023-06-04T10:09:09;-16261.94;;;-139.71;27.74
3598;BME280;1813;52.016;8.714;2023-06-04T10:11:47;-16261.94;;;-139.71;26.97
3598;BME280;1813;52.016;8.714;2023-06-04T10:14:25;-16261.94;;;-139.71;26.24
3598;BME280;1813;52.016;8.714;2023-06-04T10:17:02;-16261.94;;;-139.71;26.45
3598;BME280;1813;52.016;8.714;2023-06-04T10:19:38;-16261.94;;;-139.71;27.53
3598;BME280;1813;52.016;8.714;2023-06-04T10:22:13;-16261.94;;;-139.71;26.01
3598;BME280;1813;52.016;8.714;2023-06-04T10:24:50;-16261.94;;;-139.71;26.36
3598;BME280;1813;52.016;8.714;2023-06-04T10:27:24;-16261.94;;;-139.71;26.02
3598;BME280;1813;52.016;8.714;2023-06-04T10:29:58;-16261.94;;;-139.71;26.74
3598;BME280;1813;52.016;8.714;2023-06-04T10:32:33;-16261.94;;;-139.71;28.01
3598;BME280;1813;52.016;8.714;2023-06-04T10:35:08;-16261.94;;;-139.71;28.99
3598;BME280;1813;52.016;8.714;2023-06-04T10:37:42;-16261.94;;;-139.71;27.70
3598;BME280;1813;52.016;8.714;2023-06-04T10:40:31;-16261.94;;;-139.71;27.65
3598;BME280;1813;52.016;8.714;2023-06-04T10:43:05;-16261.94;;;-139.71;27.61
3598;BME280;1813;52.016;8.714;2023-06-04T10:45:40;-16261.94;;;-139.71;28.35
3598;BME280;1813;52.016;8.714;2023-06-04T10:48:14;-16261.94;;;-139.71;28.73
3598;BME280;1813;52.016;8.714;2023-06-04T10:50:49;-16261.94;;;-139.71;29.45
3598;BME280;1813;52.016;8.714;2023-06-04T10:53:24;-16261.94;;;-139.71;27.71
3598;BME280;1813;52.016;8.714;2023-06-04T10:56:00;-16261.94;;;-139.71;27.60
3598;BME280;1813;52.016;8.714;2023-06-04T10:58:34;-16261.94;;;-139.71;27.08
3598;BME280;1813;52.016;8.714;2023-06-04T11:01:08;-16261.94;;;-139.71;28.68
3598;BME280;1813;52.016;8.714;2023-06-04T11:03:44;-16261.94;;;-139.71;27.42
3598;BME280;1813;52.016;8.714;2023-06-04T11:06:19;-16261.94;;;-139.71;26.58
3598;BME280;1813;52.016;8.714;2023-06-04T11:09:02;-16261.94;;;-139.71;27.02
3598;BME280;1813;52.016;8.714;2023-06-04T11:11:39;-16261.94;;;-139.71;26.48
3598;BME280;1813;52.016;8.714;2023-06-04T11:14:13;-16261.94;;;-139.71;26.84
3598;BME280;1813;52.016;8.714;2023-06-04T11:16:48;-16261.94;;;-139.71;26.92
3598;BME280;1813;52.016;8.714;2023-06-04T11:19:22;-16261.94;;;-139.71;25.63
3598;BME280;1813;52.016;8.714;2023-06-04T11:21:56;-16261.94;;;-139.71;27.02
3598;BME280;1813;52.016;8.714;2023-06-04T11:24:30;-16261.94;;;-139.71;25.87
3598;BME280;1813;52.016;8.714;2023-06-04T11:27:06;-16261.94;;;-139.71;26.58
3598;BME280;1813;52.016;8.714;2023-06-04T11:29:40;-16261.94;;;-139.71;27.13
3598;BME280;1813;52.016;8.714;2023-06-04T11:32:21;-16261.94;;;-139.71;27.65
3598;BME280;1813;52.016;8.714;2023-06-04T11:35:02;-16261.94;;;-139.71;27.70
3598;BME280;1813;52.016;8.714;2023-06-04T11:37:38;-16261.94;;;-139.71;27.42
3598;BME280;1813;52.016;8.714;2023-06-04T11:40:15;-16261.94;;;-139.71;26.98
3598;BME280;1813;52.016;8.714;2023-06-04T11:42:53;-16261.94;;;-139.71;27.41
3598;BME280;1813;52.016;8.714;2023-06-04T11:45:27;-16261.94;;;-139.71;26.60
3598;BME280;1813;52.016;8.714;2023-06-04T11:48:01;-16261.94;;;-139.71;25.12
3598;BME280;1813;52.016;8.714;2023-06-04T11:50:37;-16261.94;;;-139.71;25.28
3598;BME280;1813;52.016;8.714;2023-06-04T11:53:10;-16261.94;;;-139.71;27.06
3598;BME280;1813;52.016;8.714;2023-06-04T11:55:44;-16261.94;;;-139.71;25.87
3598;BME280;1813;52.016;8.714;2023-06-04T11:58:21;-16261.94;;;-139.71;26.12
3598;BME280;1813;52.016;8.714;2023-06-04T12:00:55;-16261.94;;;-139.71;25.42
3598;BME280;1813;52.016;8.714;2023-06-04T12:03:36;-16261.94;;;-139.71;26.62
3598;BME280;1813;52.016;8.714;2023-06-04T12:06:14;-16261.94;;;-139.71;26.73
3598;BME280;1813;52.016;8.714;2023-06-04T12:08:50;-16261.94;;;-139.71;27.53
3598;BME280;1813;52.016;8.714;2023-06-04T12:11:29;-16261.94;;;-139.71;27.44
3598;BME280;1813;52.016;8.714;2023-06-04T12:14:07;-16261.94;;;-139.71;25.82
3598;BME280;1813;52.016;8.714;2023-06-04T12:16:41;-16261.94;;;-139.71;26.60
3598;BME280;1813;52.016;8.714;2023-06-04T12:19:14;-16261.94;;;-139.71;27.03
3598;BME280;1813;52.016;8.714;2023-06-04T12:21:59;-16261.94;;;-139.71;27.70
3598;BME280;1813;52.016;8.714;2023-06-04T12:24:35;-16261.94;;;-139.71;27.68
3598;BME280;1813;52.016;8.714;2023-06-04T12:27:20;-16261.94;;;-139.71;27.46
3598;BME280;1813;52.016;8.714;2023-06-04T12:29:58;-16261.94;;;-139.71;27.70
3598;BME280;1813;52.016;8.714;2023-06-04T12:32:34;-16261.94;;;-139.71;27.64
3598;BME280;1813;52.016;8.714;2023-06-04T12:35:09;-16261.94;;;-139.71;27.54
3598;BME280;1813;52.016;8.714;2023-06-04T12:37:43;-16261.94;;;-139.71;26.13
3598;BME280;1813;52.016;8.714;2023-06-04T12:40:17;-16261.94;;;-139.71;27.54
3598;BME280;1813;52.016;8.714;2023-06-04T12:42:51;-16261.94;;;-139.71;27.28
3598;BME280;1813;52.016;8.714;2023-06-04T12:45:27;-16261.94;;;-139.71;26.78
3598;BME280;1813;52.016;8.714;2023-06-04T12:48:01;-16261.94;;;-139.71;27.21
3598;BME280;1813;52.016;8.714;2023-06-04T12:50:35;-16261.94;;;-139.71;25.77
3598;BME280;1813;52.016;8.714;2023-06-04T12:53:09;-16261.94;;;-139.71;26.04
3598;BME280;1813;52.016;8.714;2023-06-04T12:55:42;-16261.94;;;-139.71;26.25
3598;BME280;1813;52.016;8.714;2023-06-04T12:58:16;-16261.94;;;-139.71;26.73
3598;BME280;1813;52.016;8.714;2023-06-04T13:00:53;-16261.94;;;-139.71;26.63
3598;BME280;1813;52.016;8.714;2023-06-04T13:03:27;-16261.94;;;-139.71;27.34
3598;BME280;1813;52.016;8.714;2023-06-04T13:06:00;-16261.94;;;-139.71;27.10
3598;BME280;1813;52.016;8.714;2023-06-04T13:08:35;-16261.94;;;-139.71;27.49
3598;BME280;1813;52.016;8.714;2023-06-04T13:11:09;-16261.94;;;-139.71;27.20
3598;BME280;1813;52.016;8.714;2023-06-04T13:13:44;-16261.94;;;-139.71;26.95
3598;BME280;1813;52.016;8.714;2023-06-04T13:16:20;-16261.94;;;-139.71;27.08
3598;BME280;1813;52.016;8.714;2023-06-04T13:18:54;-16261.94;;;-139.71;26.57
3598;BME280;1813;52.016;8.714;2023-06-04T13:21:28;-16261.94;;;-139.71;27.30
3598;BME280;1813;52.016;8.714;2023-06-04T13:24:03;-16261.94;;;-139.71;27.81
3598;BME280;1813;52.016;8.714;2023-06-04T13:26:38;-16261.94;;;-139.71;27.67
3598;BME280;1813;52.016;8.714;2023-06-04T13:29:12;-16261.94;;;-139.71;26.81
3598;BME280;1813;52.016;8.714;2023-06-04T13:31:50;-16261.94;;;-139.71;26.82